createdAt,value
2019-03-08T00:03:23.405Z,2.27
2019-03-08T00:05:49.258Z,3.27
2019-03-08T00:08:15.071Z,1.53
2019-03-08T00:10:40.897Z,3.20
2019-03-08T00:13:06.740Z,2.20
2019-03-08T00:15:34.573Z,2.50
2019-03-08T00:18:00.430Z,1.83
2019-03-08T00:20:26.251Z,5.33
2019-03-08T00:22:52.088Z,1.60
2019-03-08T00:25:17.928Z,1.40
2019-03-08T00:27:43.748Z,1.77
2019-03-08T00:30:51.236Z,2.00
2019-03-08T00:33:17.050Z,3.87
2019-03-08T00:35:42.890Z,5.67
2019-03-08T00:38:08.709Z,7.00
2019-03-08T00:40:34.522Z,5.33
2019-03-08T00:43:02.377Z,2.50
2019-03-08T00:45:28.197Z,4.63
2019-03-08T00:47:54.016Z,2.47
2019-03-08T00:50:19.865Z,2.93
2019-03-08T00:52:45.696Z,2.50
2019-03-08T00:55:53.176Z,2.10
2019-03-08T00:58:19.018Z,2.10
2019-03-08T01:00:44.954Z,2.30
2019-03-08T01:03:10.792Z,1.93
2019-03-08T01:05:36.608Z,1.97
2019-03-08T01:10:49.888Z,3.17
2019-03-08T01:13:15.733Z,5.60
2019-03-08T01:15:41.547Z,4.00
2019-03-08T01:18:07.357Z,2.00
2019-03-08T01:20:33.173Z,3.37
2019-03-08T01:23:00.908Z,2.00
2019-03-08T01:25:46.731Z,3.60
2019-03-08T01:28:32.943Z,2.10
2019-03-08T01:30:59.074Z,1.80
2019-03-08T01:33:24.900Z,4.77
2019-03-08T01:35:50.722Z,3.70
2019-03-08T01:38:16.564Z,2.63
2019-03-08T01:40:42.385Z,4.97
2019-03-08T01:43:08.215Z,3.37
2019-03-08T01:45:34.027Z,2.70
2019-03-08T01:48:41.509Z,2.30
2019-03-08T01:51:07.314Z,2.20
2019-03-08T01:53:33.120Z,5.57
2019-03-08T01:55:58.925Z,1.70
2019-03-08T01:58:26.656Z,3.30
2019-03-08T02:00:52.531Z,2.67
2019-03-08T02:03:18.336Z,1.90
2019-03-08T02:05:44.151Z,5.50
2019-03-08T02:08:09.976Z,1.07
2019-03-08T02:10:35.817Z,2.10
2019-03-08T02:13:01.646Z,2.67
2019-03-08T02:15:47.464Z,1.50
2019-03-08T02:18:33.269Z,2.50
2019-03-08T02:21:18.997Z,2.20
2019-03-08T02:24:04.709Z,1.83
2019-03-08T02:26:30.566Z,2.40
2019-03-08T02:28:56.384Z,3.10
2019-03-08T02:31:22.203Z,2.43
2019-03-08T02:33:49.953Z,3.83
2019-03-08T02:36:15.754Z,3.00
2019-03-08T02:38:41.590Z,4.53
2019-03-08T02:41:07.427Z,2.57
2019-03-08T02:43:33.268Z,3.17
2019-03-08T02:46:40.756Z,2.50
2019-03-08T02:49:06.601Z,1.97
2019-03-08T02:51:32.466Z,2.03
2019-03-08T02:53:58.250Z,3.20
2019-03-08T02:56:24.088Z,3.17
2019-03-08T02:58:49.911Z,2.00
2019-03-08T03:01:31.437Z,3.50
2019-03-08T03:04:10.561Z,1.67
2019-03-08T03:06:36.454Z,1.07
2019-03-08T03:09:43.906Z,1.50
2019-03-08T03:12:09.756Z,4.00
2019-03-08T03:14:35.579Z,1.83
2019-03-08T03:17:01.429Z,2.77
2019-03-08T03:19:29.173Z,3.50
2019-03-08T03:21:55.004Z,1.77
2019-03-08T03:24:20.836Z,2.40
2019-03-08T03:26:46.656Z,2.30
2019-03-08T03:29:12.504Z,6.30
2019-03-08T03:31:38.311Z,2.20
2019-03-08T03:34:04.133Z,2.27
2019-03-08T03:36:29.961Z,2.67
2019-03-08T03:38:57.681Z,1.60
2019-03-08T03:41:23.510Z,2.70
2019-03-08T03:43:49.340Z,1.40
2019-03-08T03:46:15.191Z,2.93
2019-03-08T03:48:41.015Z,1.67
2019-03-08T03:51:06.865Z,2.20
2019-03-08T03:53:32.675Z,1.57
2019-03-08T03:55:58.481Z,1.87
2019-03-08T03:58:24.316Z,1.10
2019-03-08T04:00:50.148Z,2.90
2019-03-08T04:03:15.997Z,1.50
2019-03-08T04:05:41.800Z,3.07
2019-03-08T04:08:07.646Z,2.40
2019-03-08T04:10:33.445Z,2.90
2019-03-08T04:12:59.260Z,2.13
2019-03-08T04:15:26.974Z,3.17
2019-03-08T04:17:52.827Z,2.60
2019-03-08T04:21:00.287Z,4.37
2019-03-08T04:23:26.365Z,2.93
2019-03-08T04:25:52.160Z,3.93
2019-03-08T04:28:17.962Z,2.60
2019-03-08T04:33:21.037Z,6.60
2019-03-08T04:35:46.871Z,2.00
2019-03-08T04:41:19.912Z,3.80
2019-03-08T04:43:45.731Z,3.83
2019-03-08T04:46:11.583Z,5.70
2019-03-08T04:48:37.497Z,2.13
2019-03-08T04:51:03.316Z,5.20
2019-03-08T04:53:29.152Z,4.77
2019-03-08T04:55:54.981Z,7.10
2019-03-08T04:58:20.833Z,3.20
2019-03-08T05:00:46.680Z,1.20
2019-03-08T05:03:12.526Z,2.30
2019-03-08T05:05:38.352Z,2.50
2019-03-08T05:08:06.193Z,5.83
2019-03-08T05:10:32.020Z,1.77
2019-03-08T05:12:57.859Z,3.07
2019-03-08T05:15:23.707Z,3.80
2019-03-08T05:17:49.532Z,1.57
2019-03-08T05:20:15.366Z,1.63
2019-03-08T05:22:41.187Z,1.70
2019-03-08T05:25:48.654Z,1.73
2019-03-08T05:28:14.497Z,1.87
2019-03-08T05:30:40.305Z,1.30
2019-03-08T05:33:06.124Z,8.87
2019-03-08T05:35:33.860Z,3.30
2019-03-08T05:37:59.704Z,1.90
2019-03-08T05:40:25.533Z,2.07
2019-03-08T05:42:51.373Z,1.80
2019-03-08T05:45:17.195Z,3.60
2019-03-08T05:47:43.014Z,1.73
2019-03-08T05:50:50.495Z,2.17
2019-03-08T05:53:16.328Z,1.57
2019-03-08T05:55:42.179Z,2.10
2019-03-08T05:58:08.008Z,2.13
2019-03-08T06:00:34.699Z,1.73
2019-03-08T06:03:21.461Z,2.50
2019-03-08T06:05:47.282Z,1.87
2019-03-08T06:08:13.114Z,1.53
2019-03-08T06:10:38.946Z,1.70
2019-03-08T06:13:46.423Z,2.67
2019-03-08T06:16:12.245Z,2.33
2019-03-08T06:18:38.056Z,2.87
2019-03-08T06:21:03.889Z,9.20
2019-03-08T06:23:29.715Z,1.73
2019-03-08T06:25:57.449Z,2.40
2019-03-08T06:28:23.284Z,2.10
2019-03-08T06:30:49.102Z,2.67
2019-03-08T06:33:14.922Z,2.53
2019-03-08T06:35:40.758Z,2.10
2019-03-08T06:38:06.574Z,2.40
2019-03-08T06:40:32.408Z,2.40
2019-03-08T06:42:58.238Z,2.30
2019-03-08T06:45:25.967Z,2.70
2019-03-08T06:47:51.793Z,2.27
2019-03-08T06:50:17.610Z,3.00
2019-03-08T06:52:43.561Z,5.10
2019-03-08T06:55:29.256Z,2.07
2019-03-08T07:03:26.182Z,4.50
2019-03-08T07:05:52.010Z,10.03
2019-03-08T07:08:19.765Z,3.07
2019-03-08T07:10:45.586Z,3.23
2019-03-08T07:13:11.405Z,2.37
2019-03-08T07:15:37.228Z,4.97
2019-03-08T07:18:11.733Z,6.83
2019-03-08T07:20:50.646Z,6.70
2019-03-08T07:23:56.528Z,3.00
2019-03-08T07:26:42.254Z,4.60
2019-03-08T07:29:27.992Z,2.30
2019-03-08T07:34:47.486Z,6.13
2019-03-08T07:40:48.271Z,2.83
2019-03-08T07:46:27.605Z,2.50
2019-03-08T07:49:13.302Z,2.60
2019-03-08T07:55:06.253Z,1.20
2019-03-08T07:57:52.151Z,5.23
2019-03-08T08:00:37.835Z,3.70
2019-03-08T08:09:31.427Z,2.10
2019-03-08T08:20:18.650Z,2.47
2019-03-08T08:23:04.333Z,2.37
2019-03-08T08:25:50.033Z,3.40
2019-03-08T08:31:44.853Z,1.10
2019-03-08T08:34:52.349Z,1.63
2019-03-08T08:37:38.059Z,4.93
2019-03-08T08:40:45.534Z,2.73
2019-03-08T08:43:31.529Z,2.00
2019-03-08T08:46:17.247Z,2.33
2019-03-08T08:51:50.326Z,1.80
2019-03-08T08:54:36.036Z,3.83
2019-03-08T08:57:21.765Z,4.80
2019-03-08T09:03:14.737Z,3.97
2019-03-08T09:06:00.438Z,3.90
2019-03-08T09:11:23.188Z,2.20
2019-03-08T09:14:08.875Z,2.80
2019-03-08T09:16:54.597Z,2.50
2019-03-08T09:22:27.666Z,1.60
2019-03-08T09:25:13.356Z,2.07
2019-03-08T09:28:18.940Z,1.80
2019-03-08T09:31:04.651Z,4.60
2019-03-08T09:34:10.432Z,2.63
2019-03-08T09:36:56.144Z,1.73
2019-03-08T09:42:17.859Z,1.77
2019-03-08T09:45:02.198Z,2.90
2019-03-08T09:47:29.937Z,5.50
2019-03-08T09:50:06.450Z,1.87
2019-03-08T09:52:34.190Z,5.33
2019-03-08T09:55:01.918Z,7.20
2019-03-08T09:57:41.797Z,6.50
2019-03-08T10:00:12.650Z,3.80
2019-03-08T10:02:40.375Z,1.67
2019-03-08T10:05:08.132Z,2.33
2019-03-08T10:07:44.478Z,5.20
2019-03-08T10:10:12.328Z,1.93
2019-03-08T10:12:40.074Z,3.60
2019-03-08T10:15:10.906Z,1.40
2019-03-08T10:17:53.593Z,3.50
2019-03-08T10:20:24.115Z,1.80
2019-03-08T10:22:51.849Z,7.67
2019-03-08T10:25:22.596Z,3.90
2019-03-08T10:28:05.506Z,3.90
2019-03-08T10:30:51.192Z,1.87
2019-03-08T10:33:46.029Z,4.03
2019-03-08T10:36:24.523Z,5.03
2019-03-08T10:39:10.229Z,2.73
2019-03-08T10:45:03.156Z,2.40
2019-03-08T10:47:55.820Z,1.73
2019-03-08T10:50:36.482Z,2.20
2019-03-08T10:53:22.168Z,1.60
2019-03-08T10:56:08.093Z,2.30
2019-03-08T11:02:01.327Z,3.33
2019-03-08T11:04:47.035Z,1.07
2019-03-08T11:10:48.548Z,4.33
2019-03-08T11:13:42.981Z,1.53
2019-03-08T11:16:43.388Z,2.40
2019-03-08T11:19:29.202Z,1.50
2019-03-08T11:22:34.778Z,2.00
2019-03-08T11:27:54.469Z,2.70
2019-03-08T11:30:40.181Z,1.80
2019-03-08T11:33:25.970Z,2.77
2019-03-08T11:36:11.681Z,1.87
2019-03-08T11:39:17.277Z,2.80
2019-03-08T11:44:56.981Z,2.60
2019-03-08T11:47:42.715Z,5.93
2019-03-08T11:50:50.208Z,4.23
2019-03-08T11:53:35.932Z,1.03
2019-03-08T11:59:09.005Z,2.50
2019-03-08T12:01:54.828Z,3.33
2019-03-08T12:04:40.839Z,4.07
2019-03-08T12:07:26.564Z,2.10
2019-03-08T12:10:32.157Z,2.70
2019-03-08T12:13:17.890Z,1.67
2019-03-08T12:19:11.019Z,2.20
2019-03-08T12:25:03.993Z,1.50
2019-03-08T12:30:37.164Z,4.13
2019-03-08T12:33:44.633Z,1.40
2019-03-08T12:36:30.466Z,2.70
2019-03-08T12:39:16.160Z,2.03
2019-03-08T12:42:01.898Z,2.20
2019-03-08T12:44:47.584Z,3.17
2019-03-08T12:47:33.325Z,3.10
2019-03-08T12:56:20.033Z,2.57
2019-03-08T13:01:39.357Z,2.20
2019-03-08T13:04:25.085Z,1.50
2019-03-08T13:12:32.270Z,3.70
2019-03-08T13:15:00.060Z,1.27
2019-03-08T13:17:25.876Z,2.83
2019-03-08T13:19:51.695Z,1.50
2019-03-08T13:22:17.538Z,2.20
2019-03-08T13:24:43.364Z,1.40
2019-03-08T13:27:09.209Z,3.57
2019-03-08T13:29:35.014Z,1.30
2019-03-08T13:32:00.884Z,6.13
2019-03-08T13:34:28.621Z,3.37
2019-03-08T13:36:54.438Z,1.43
2019-03-08T13:39:20.292Z,1.50
2019-03-08T13:41:46.108Z,1.87
2019-03-08T13:44:12.086Z,1.57
2019-03-08T13:46:37.919Z,2.13
2019-03-08T13:49:03.770Z,1.90
2019-03-08T13:51:29.600Z,3.17
2019-03-08T13:53:55.543Z,4.00
2019-03-08T13:56:21.382Z,2.77
2019-03-08T13:58:47.197Z,4.43
2019-03-08T14:01:13.066Z,4.10
2019-03-08T14:03:38.887Z,4.20
2019-03-08T14:06:04.733Z,3.60
2019-03-08T14:08:30.551Z,3.00
2019-03-08T14:10:56.395Z,2.60
2019-03-08T14:13:22.509Z,3.43
2019-03-08T14:15:48.382Z,2.27
2019-03-08T14:18:21.377Z,3.90
2019-03-08T14:20:47.221Z,3.07
2019-03-08T14:23:13.063Z,7.20
2019-03-08T14:25:38.880Z,4.07
2019-03-08T14:28:04.716Z,1.87
2019-03-08T14:30:57.546Z,2.07
2019-03-08T14:33:18.278Z,2.43
2019-03-08T14:36:25.754Z,3.47
2019-03-08T14:38:51.592Z,2.27
2019-03-08T14:46:58.243Z,2.20
2019-03-08T14:49:24.371Z,2.83
2019-03-08T14:51:51.878Z,8.90
2019-03-08T14:54:17.719Z,2.30
2019-03-08T14:56:43.565Z,2.30
2019-03-08T14:59:11.137Z,2.30
2019-03-08T15:01:39.928Z,2.57
2019-03-08T15:04:04.964Z,2.20
2019-03-08T15:06:30.773Z,2.07
2019-03-08T15:08:56.623Z,2.10
2019-03-08T15:11:24.755Z,2.97
2019-03-08T15:13:52.388Z,3.20
2019-03-08T15:16:18.233Z,2.40
2019-03-08T15:18:44.065Z,3.33
2019-03-08T15:21:09.917Z,2.60
2019-03-08T15:23:35.752Z,2.93
2019-03-08T15:26:01.623Z,4.13
2019-03-08T15:28:27.645Z,2.23
2019-03-08T15:30:53.477Z,3.70
2019-03-08T15:33:19.316Z,2.73
2019-03-08T15:35:45.145Z,4.40
2019-03-08T15:38:10.988Z,6.50
2019-03-08T15:40:36.813Z,4.60
2019-03-08T15:43:02.639Z,3.23
2019-03-08T15:45:28.677Z,2.97
2019-03-08T15:47:54.510Z,2.63
2019-03-08T15:51:02.010Z,3.70
2019-03-08T15:53:27.848Z,2.47
2019-03-08T15:55:53.722Z,3.40
2019-03-08T15:58:19.548Z,4.77
2019-03-08T16:00:45.380Z,4.30
2019-03-08T16:03:11.223Z,4.17
2019-03-08T16:05:37.045Z,3.80
2019-03-08T16:08:22.860Z,3.50
2019-03-08T16:10:48.683Z,4.33
2019-03-08T16:13:14.529Z,2.83
2019-03-08T16:15:40.350Z,2.33
2019-03-08T16:18:06.198Z,2.50
2019-03-08T16:20:32.044Z,2.10
2019-03-08T16:22:57.861Z,1.87
2019-03-08T16:25:23.690Z,1.93
2019-03-08T16:27:49.560Z,1.67
2019-03-08T16:36:20.817Z,1.70
2019-03-08T16:42:01.013Z,2.43
2019-03-08T16:50:17.810Z,2.00
2019-03-08T16:55:50.669Z,3.00
2019-03-08T16:58:36.348Z,6.00
2019-03-08T17:01:43.841Z,4.30
2019-03-08T17:07:16.894Z,9.67
2019-03-08T17:10:02.623Z,12.83
2019-03-08T17:15:35.683Z,24.50
2019-03-08T17:18:21.378Z,19.90
2019-03-08T17:23:40.495Z,18.20
2019-03-08T17:26:26.219Z,9.40
2019-03-08T17:32:26.028Z,7.20
2019-03-08T17:35:11.765Z,5.23
2019-03-08T17:40:45.063Z,3.10
2019-03-08T17:43:30.762Z,2.97
2019-03-08T17:51:30.348Z,3.00
2019-03-08T17:54:16.074Z,3.67
2019-03-08T17:57:01.764Z,3.93
2019-03-08T17:59:47.480Z,3.50
2019-03-08T18:02:33.177Z,3.93
2019-03-08T18:07:56.187Z,4.77
2019-03-08T18:10:41.892Z,2.70
2019-03-08T18:13:27.622Z,2.97
2019-03-08T18:16:13.347Z,5.40
2019-03-08T18:21:46.419Z,3.40
2019-03-08T18:27:19.506Z,3.50
2019-03-08T18:30:05.205Z,3.53
2019-03-08T18:32:50.924Z,4.30
2019-03-08T18:35:36.638Z,5.13
2019-03-08T18:38:44.139Z,4.47
2019-03-08T18:41:29.837Z,9.00
2019-03-08T18:47:29.411Z,5.00
2019-03-08T18:50:15.134Z,8.70
2019-03-08T19:00:58.990Z,3.63
2019-03-08T19:03:44.692Z,5.57
2019-03-08T19:06:30.440Z,9.67
2019-03-08T19:09:16.150Z,15.67
2019-03-08T19:12:01.868Z,7.63
2019-03-08T19:14:47.595Z,5.13
2019-03-08T19:17:33.537Z,4.90
2019-03-08T19:23:06.613Z,5.33
2019-03-08T19:26:12.385Z,6.00
2019-03-08T19:28:43.076Z,5.40
2019-03-08T19:31:13.663Z,7.83
2019-03-08T19:33:47.550Z,11.00
2019-03-08T19:36:27.140Z,9.43
2019-03-08T19:38:55.046Z,7.60
2019-03-08T19:41:25.585Z,5.70
2019-03-08T19:43:56.394Z,5.90
2019-03-08T19:46:24.314Z,9.17
2019-03-08T19:49:04.366Z,8.80
2019-03-08T19:51:48.974Z,9.27
2019-03-08T19:54:31.847Z,12.57
2019-03-08T19:57:02.585Z,11.13
2019-03-08T19:59:39.088Z,7.33
2019-03-08T20:02:23.851Z,5.20
2019-03-08T20:05:08.610Z,5.40
2019-03-08T20:07:48.471Z,4.10
2019-03-08T20:10:19.426Z,6.53
2019-03-08T20:12:53.143Z,10.33
2019-03-08T20:15:21.023Z,5.97
2019-03-08T20:18:04.286Z,7.90
2019-03-08T20:20:34.920Z,6.63
2019-03-08T20:23:08.573Z,7.30
2019-03-08T20:25:39.259Z,5.80
2019-03-08T20:28:09.908Z,8.47
2019-03-08T20:30:54.469Z,6.63
2019-03-08T20:33:25.022Z,5.30
2019-03-08T20:35:52.833Z,4.73
2019-03-08T20:38:32.972Z,8.10
2019-03-08T20:41:17.914Z,5.50
2019-03-08T20:43:48.445Z,6.83
2019-03-08T20:46:16.303Z,5.43
2019-03-08T20:48:42.326Z,6.47
2019-03-08T20:51:08.566Z,6.27
2019-03-08T20:53:34.665Z,5.37
2019-03-08T20:56:00.637Z,5.83
2019-03-08T20:58:26.726Z,5.50
2019-03-08T21:00:52.718Z,5.77
2019-03-08T21:03:18.871Z,6.13
2019-03-08T21:05:44.756Z,5.13
2019-03-08T21:08:10.861Z,5.47
2019-03-08T21:10:36.960Z,7.60
2019-03-08T21:13:02.989Z,8.37
2019-03-08T21:15:28.959Z,12.47
2019-03-08T21:17:55.108Z,6.37
2019-03-08T21:20:21.178Z,8.67
2019-03-08T21:22:47.081Z,8.50
2019-03-08T21:25:14.307Z,14.50
2019-03-08T21:27:40.166Z,12.83
2019-03-08T21:30:09.914Z,11.43
2019-03-08T21:32:35.915Z,21.77
2019-03-08T21:35:02.499Z,29.57
2019-03-08T21:37:28.380Z,26.50
2019-03-08T21:39:54.473Z,15.17
2019-03-08T21:42:20.361Z,11.10
2019-03-08T21:44:46.220Z,7.80
2019-03-08T21:47:12.148Z,18.77
2019-03-08T21:49:39.433Z,19.40
2019-03-08T21:52:05.563Z,22.60
2019-03-08T21:54:31.395Z,19.00
2019-03-08T21:56:57.526Z,17.07
2019-03-08T21:59:23.415Z,20.10
2019-03-08T22:01:49.324Z,16.00
2019-03-08T22:04:19.890Z,15.60
2019-03-08T22:06:45.693Z,12.70
2019-03-08T22:09:16.455Z,13.43
2019-03-08T22:11:43.445Z,11.97
2019-03-08T22:14:09.371Z,10.03
2019-03-08T22:16:35.237Z,11.47
2019-03-08T22:19:02.396Z,10.57
2019-03-08T22:21:28.323Z,12.10
2019-03-08T22:23:54.168Z,12.23
2019-03-08T22:26:20.089Z,8.20
2019-03-08T22:28:46.145Z,9.80
2019-03-08T22:31:12.041Z,6.70
2019-03-08T22:33:37.958Z,9.80
2019-03-08T22:36:04.055Z,9.07
2019-03-08T22:38:29.904Z,26.70
2019-03-08T22:40:55.779Z,20.73
2019-03-08T22:43:22.762Z,21.73
2019-03-08T22:45:48.811Z,27.13
2019-03-08T22:48:14.657Z,19.20
2019-03-08T22:50:40.545Z,19.47
2019-03-08T22:53:06.402Z,17.73
2019-03-08T22:55:32.262Z,13.47
2019-03-08T22:57:58.129Z,8.57
2019-03-08T23:00:53.526Z,10.50
2019-03-08T23:03:19.732Z,7.17
2019-03-08T23:05:45.670Z,7.60
2019-03-08T23:08:11.552Z,8.60
2019-03-08T23:10:37.442Z,8.57
2019-03-08T23:13:03.418Z,7.40
2019-03-08T23:15:29.290Z,7.00
2019-03-08T23:17:55.163Z,10.40
2019-03-08T23:20:21.010Z,7.90
2019-03-08T23:22:46.885Z,9.90
2019-03-08T23:25:12.777Z,11.70
2019-03-08T23:27:43.266Z,10.30
2019-03-08T23:30:11.259Z,14.67
2019-03-08T23:32:37.919Z,9.57
2019-03-08T23:35:05.707Z,11.87
2019-03-08T23:37:31.572Z,13.10
2019-03-08T23:39:57.467Z,12.03
2019-03-08T23:42:23.524Z,17.33
2019-03-08T23:44:49.427Z,17.07
2019-03-08T23:47:15.261Z,20.13
2019-03-08T23:49:41.224Z,29.47
2019-03-08T23:52:07.083Z,23.00
2019-03-08T23:54:32.965Z,18.80
2019-03-08T23:56:58.839Z,21.03
2019-03-08T23:59:24.893Z,23.10
